CW2798 Aduanas ES current weather conditions

sailwx.info

Wind from 357 at 3 knots gusting 6

Air temperature 16.7° C
Dewpoint 13.0° C

Last reported at 2016-May-04 06:45 UTC.
Time now 2016-May-04 07:58 UTC

Location: N 38°48' E 000°11'.
View on Google Maps.

See reports from other nearby stations

  
Tides and Currents Weather Stations Pressure Air Temp Water Temp Dewpoint Dewpoint Depression Visibility Wind Speed Wind Dir Waves Ship Positions
date/time (UTC)wind fromknots sea level pressurealtimeterstation pressurevisibilityair tempwater tempwave heightnotes
2016-May-04 06:45 357 3 gusting 6 16.7
2016-May-04 06:30 356 1 gusting 7 16.7
2016-May-04 05:30 12.2
2016-May-04 05:15 329 12.2
2016-May-04 04:30 12.2
2016-May-04 03:45 12.2
2016-May-04 03:15 12.8
2016-May-04 01:45 13.9
2016-May-04 01:30 13.9
2016-May-04 00:00 16.7
2016-May-03 23:30 17.2
2016-May-03 23:15 17.2
2016-May-03 22:45 295 3 gusting 6 17.8
2016-May-03 22:15 303 4 gusting 6 17.2
2016-May-03 21:15 304 5 gusting 6 17.8
2016-May-03 21:00 298 3 gusting 6 17.8
2016-May-03 20:15 296 5 gusting 7 18.3
2016-May-03 18:45 313 6 gusting 7 18.9
2016-May-03 18:30 297 5 gusting 7 18.9
2016-May-03 18:15 321 6 gusting 8 19.4
2016-May-03 18:00 342 7 gusting 10 20.0
2016-May-03 17:30 332 7 gusting 13 20.6
2016-May-03 17:00 327 7 gusting 13 21.1
2016-May-03 16:30 341 10 gusting 14 21.1
2016-May-03 16:15 329 9 gusting 13 21.7
2016-May-03 15:30 340 8 gusting 19 22.2
2016-May-03 15:15 325 7 gusting 15 22.2
2016-May-03 15:00 330 7 gusting 15 22.8
2016-May-03 14:45 343 6 gusting 13 22.8
2016-May-03 14:15 297 9 gusting 12 22.8
2016-May-03 13:45 311 10 gusting 19 22.2
2016-May-03 13:30 318 11 gusting 19 22.2
2016-May-03 12:15 298 9 gusting 15 21.7
2016-May-03 11:30 338 9 gusting 16 21.1
2016-May-03 11:00 320 8 gusting 15 21.1
2016-May-03 10:45 332 8 gusting 16 21.1
2016-May-03 10:15 289 6 gusting 11 21.1
2016-May-03 09:45 277 7 gusting 14 20.6
2016-May-03 09:15 315 6 gusting 10 20.0
2016-May-03 08:45 254 2 gusting 6 19.4
2016-May-03 08:30 216 0 gusting 6 19.4
2016-May-03 08:00 254 2 gusting 5 18.3
2016-May-03 07:45 274 17.8
2016-May-03 07:30 295 1 gusting 2 16.7
2016-May-03 06:30 15.0
2016-May-03 06:15 295 13.3
2016-May-03 06:00 12.8
2016-May-03 05:30 13.3
2016-May-03 05:15 12.8
2016-May-03 04:00 11.7
2016-May-03 03:00 13.3
2016-May-03 01:15 14.4
2016-May-03 01:00 14.4
2016-May-03 00:30 14.4
2016-May-03 00:00 323 4 gusting 5 15.0
2016-May-02 23:45 316 0 gusting 4 14.4
2016-May-02 22:30 308 2 gusting 6 14.4
2016-May-02 22:00 282 1 gusting 5 14.4
2016-May-02 21:45 15.0
2016-May-02 20:45 312 0 gusting 5 15.6
2016-May-02 20:15 15.6
2016-May-02 19:45 16.1
2016-May-02 19:30 16.7
2016-May-02 19:15 278 0 gusting 1 16.7
2016-May-02 19:00 254 0 gusting 4 17.2
2016-May-02 18:15 273 4 gusting 8 17.8
2016-May-02 17:45 324 6 gusting 12 18.3
2016-May-02 17:30 294 6 gusting 11 18.3
2016-May-02 16:00 347 9 gusting 13 17.8
2016-May-02 15:00 233 5 gusting 7 18.3
2016-May-02 14:30 152 5 gusting 11 17.2
2016-May-02 13:45 149 5 gusting 13 17.2
2016-May-02 13:30 149 4 gusting 10 17.8
2016-May-02 13:15 149 2 gusting 10 17.2
2016-May-02 12:30 115 0 gusting 6 16.7
2016-May-02 11:45 058 0 gusting 5 16.1
2016-May-02 11:30 095 0 gusting 3 16.7
2016-May-02 11:00 069 0 gusting 5 16.7
2016-May-02 10:45 035 5 gusting 13 16.1
2016-May-02 10:00 017 5 gusting 11 16.1
2016-May-02 09:15 009 6 gusting 13 15.6
2016-May-02 09:00 014 5 gusting 6 15.6
2016-May-02 08:45 021 5 gusting 10 15.6
2016-May-02 08:30 031 2 gusting 10 15.6
2016-May-02 08:15 018 4 gusting 10 15.6
2016-May-02 08:00 002 6 gusting 9 15.6
2016-May-02 07:30 012 3 gusting 8 15.6
2016-May-02 07:15 010 4 gusting 9 15.6